sensor_id;sensor_type;location;lat;lon;timestamp;pressure;altitude;pressure_sealevel;temperature;humidity
51452;BME280;37521;52.020;-1.740;2023-03-04T00:00:41;101418.41;;;1.81;100.00
51452;BME280;37521;52.020;-1.740;2023-03-04T00:03:12;101423.56;;;1.78;100.00
51452;BME280;37521;52.020;-1.740;2023-03-04T00:05:41;101428.75;;;1.78;100.00
51452;BME280;37521;52.020;-1.740;2023-03-04T00:08:11;101438.28;;;1.75;100.00
51452;BME280;37521;52.020;-1.740;2023-03-04T00:10:39;101434.78;;;1.73;100.00
51452;BME280;37521;52.020;-1.740;2023-03-04T00:13:07;101438.22;;;1.72;100.00
51452;BME280;37521;52.020;-1.740;2023-03-04T00:15:36;101432.16;;;1.71;100.00
51452;BME280;37521;52.020;-1.740;2023-03-04T00:18:04;101429.53;;;1.70;100.00
51452;BME280;37521;52.020;-1.740;2023-03-04T00:20:32;101434.75;;;1.70;100.00
51452;BME280;37521;52.020;-1.740;2023-03-04T00:23:00;101429.53;;;1.70;100.00
51452;BME280;37521;52.020;-1.740;2023-03-04T00:25:30;101439.94;;;1.70;100.00
51452;BME280;37521;52.020;-1.740;2023-03-04T00:27:59;101431.28;;;1.69;100.00
51452;BME280;37521;52.020;-1.740;2023-03-04T00:30:27;101445.16;;;1.70;100.00
51452;BME280;37521;52.020;-1.740;2023-03-04T00:32:55;101439.94;;;1.70;100.00
51452;BME280;37521;52.020;-1.740;2023-03-04T00:35:24;101446.91;;;1.71;100.00
51452;BME280;37521;52.020;-1.740;2023-03-04T00:37:52;101443.44;;;1.72;100.00
51452;BME280;37521;52.020;-1.740;2023-03-04T00:40:21;101443.44;;;1.72;100.00
51452;BME280;37521;52.020;-1.740;2023-03-04T00:42:50;101450.38;;;1.73;100.00
51452;BME280;37521;52.020;-1.740;2023-03-04T00:45:18;101446.03;;;1.70;100.00
51452;BME280;37521;52.020;-1.740;2023-03-04T00:47:46;101444.28;;;1.69;100.00
51452;BME280;37521;52.020;-1.740;2023-03-04T00:50:15;101452.09;;;1.71;100.00
51452;BME280;37521;52.020;-1.740;2023-03-04T00:52:43;101455.59;;;1.73;100.00
51452;BME280;37521;52.020;-1.740;2023-03-04T00:55:11;101454.78;;;1.77;100.00
51452;BME280;37521;52.020;-1.740;2023-03-04T00:57:39;101452.13;;;1.74;100.00
51452;BME280;37521;52.020;-1.740;2023-03-04T01:00:10;101445.16;;;1.70;100.00
51452;BME280;37521;52.020;-1.740;2023-03-04T01:02:38;101445.06;;;1.63;100.00
51452;BME280;37521;52.020;-1.740;2023-03-04T01:05:07;101445.00;;;1.60;100.00
51452;BME280;37521;52.020;-1.740;2023-03-04T01:07:36;101445.00;;;1.57;100.00
51452;BME280;37521;52.020;-1.740;2023-03-04T01:10:06;101450.19;;;1.57;100.00
51452;BME280;37521;52.020;-1.740;2023-03-04T01:12:35;101445.84;;;1.56;100.00
51452;BME280;37521;52.020;-1.740;2023-03-04T01:15:03;101434.56;;;1.54;100.00
51452;BME280;37521;52.020;-1.740;2023-03-04T01:17:33;101436.28;;;1.55;100.00
51452;BME280;37521;52.020;-1.740;2023-03-04T01:20:01;101429.34;;;1.54;100.00
51452;BME280;37521;52.020;-1.740;2023-03-04T01:22:29;101434.56;;;1.54;100.00
51452;BME280;37521;52.020;-1.740;2023-03-04T01:24:58;101432.78;;;1.53;100.00
51452;BME280;37521;52.020;-1.740;2023-03-04T01:27:26;101432.78;;;1.53;100.00
51452;BME280;37521;52.020;-1.740;2023-03-04T01:29:54;101428.50;;;1.57;100.00
51452;BME280;37521;52.020;-1.740;2023-03-04T01:32:22;101425.09;;;1.61;100.00
51452;BME280;37521;52.020;-1.740;2023-03-04T01:34:52;101425.97;;;1.61;100.00
51452;BME280;37521;52.020;-1.740;2023-03-04T01:37:20;101427.66;;;1.59;100.00
51452;BME280;37521;52.020;-1.740;2023-03-04T01:39:48;101420.69;;;1.58;100.00
51452;BME280;37521;52.020;-1.740;2023-03-04T01:42:18;101420.69;;;1.58;100.00
51452;BME280;37521;52.020;-1.740;2023-03-04T01:44:48;101412.94;;;1.61;100.00
51452;BME280;37521;52.020;-1.740;2023-03-04T01:47:17;101412.94;;;1.61;100.00
51452;BME280;37521;52.020;-1.740;2023-03-04T01:49:49;101412.03;;;1.59;100.00
51452;BME280;37521;52.020;-1.740;2023-03-04T01:52:19;101411.19;;;1.60;100.00
51452;BME280;37521;52.020;-1.740;2023-03-04T01:54:49;101405.13;;;1.61;100.00
51452;BME280;37521;52.020;-1.740;2023-03-04T01:57:19;101405.16;;;1.64;100.00
51452;BME280;37521;52.020;-1.740;2023-03-04T02:00:17;101406.91;;;1.64;100.00
51452;BME280;37521;52.020;-1.740;2023-03-04T02:02:47;101402.50;;;1.60;100.00
51452;BME280;37521;52.020;-1.740;2023-03-04T02:05:17;101400.75;;;1.59;100.00
51452;BME280;37521;52.020;-1.740;2023-03-04T02:07:47;101404.22;;;1.59;100.00
51452;BME280;37521;52.020;-1.740;2023-03-04T02:10:15;101401.63;;;1.59;100.00
51452;BME280;37521;52.020;-1.740;2023-03-04T02:12:44;101391.22;;;1.59;100.00
51452;BME280;37521;52.020;-1.740;2023-03-04T02:15:12;101392.03;;;1.55;100.00
51452;BME280;37521;52.020;-1.740;2023-03-04T02:17:40;101394.59;;;1.52;100.00
51452;BME280;37521;52.020;-1.740;2023-03-04T02:20:17;101401.53;;;1.53;100.00
51452;BME280;37521;52.020;-1.740;2023-03-04T02:22:59;101399.81;;;1.52;100.00
51452;BME280;37521;52.020;-1.740;2023-03-04T02:25:34;101391.97;;;1.49;100.00
51452;BME280;37521;52.020;-1.740;2023-03-04T02:28:05;101391.97;;;1.49;100.00
51452;BME280;37521;52.020;-1.740;2023-03-04T02:30:34;101382.41;;;1.48;100.00
51452;BME280;37521;52.020;-1.740;2023-03-04T02:33:02;101396.28;;;1.47;100.00
51452;BME280;37521;52.020;-1.740;2023-03-04T02:35:31;101391.03;;;1.44;100.00
51452;BME280;37521;52.020;-1.740;2023-03-04T02:37:59;101396.22;;;1.44;100.00
51452;BME280;37521;52.020;-1.740;2023-03-04T02:40:29;101384.97;;;1.45;100.00
51452;BME280;37521;52.020;-1.740;2023-03-04T02:42:58;101395.38;;;1.45;100.00
51452;BME280;37521;52.020;-1.740;2023-03-04T02:45:35;101397.09;;;1.43;100.00
51452;BME280;37521;52.020;-1.740;2023-03-04T02:48:05;101391.88;;;1.43;100.00
51452;BME280;37521;52.020;-1.740;2023-03-04T02:50:36;101397.09;;;1.43;100.00
51452;BME280;37521;52.020;-1.740;2023-03-04T02:53:05;101397.94;;;1.42;100.00
51452;BME280;37521;52.020;-1.740;2023-03-04T02:55:33;101386.66;;;1.42;100.00
51452;BME280;37521;52.020;-1.740;2023-03-04T02:58:02;101390.19;;;1.47;100.00
51452;BME280;37521;52.020;-1.740;2023-03-04T03:00:31;101386.78;;;1.51;100.00
51452;BME280;37521;52.020;-1.740;2023-03-04T03:03:01;101386.75;;;1.49;100.00
51452;BME280;37521;52.020;-1.740;2023-03-04T03:05:31;101389.31;;;1.46;100.00
51452;BME280;37521;52.020;-1.740;2023-03-04T03:08:01;101383.22;;;1.44;100.00
51452;BME280;37521;52.020;-1.740;2023-03-04T03:10:30;101385.81;;;1.44;100.00
51452;BME280;37521;52.020;-1.740;2023-03-04T03:12:59;101386.69;;;1.45;100.00
51452;BME280;37521;52.020;-1.740;2023-03-04T03:15:27;101380.59;;;1.41;100.00
51452;BME280;37521;52.020;-1.740;2023-03-04T03:17:57;101379.72;;;1.41;100.00
51452;BME280;37521;52.020;-1.740;2023-03-04T03:20:25;101372.78;;;1.41;100.00
51452;BME280;37521;52.020;-1.740;2023-03-04T03:22:53;101373.59;;;1.40;100.00
51452;BME280;37521;52.020;-1.740;2023-03-04T03:25:21;101371.00;;;1.40;100.00
51452;BME280;37521;52.020;-1.740;2023-03-04T03:27:52;101359.84;;;1.47;100.00
51452;BME280;37521;52.020;-1.740;2023-03-04T03:30:21;101359.00;;;1.48;100.00
51452;BME280;37521;52.020;-1.740;2023-03-04T03:32:49;101360.72;;;1.48;100.00
51452;BME280;37521;52.020;-1.740;2023-03-04T03:35:19;101359.84;;;1.47;100.00
51452;BME280;37521;52.020;-1.740;2023-03-04T03:37:47;101359.78;;;1.44;100.00
51452;BME280;37521;52.020;-1.740;2023-03-04T03:40:16;101365.00;;;1.44;100.00
51452;BME280;37521;52.020;-1.740;2023-03-04T03:42:44;101361.50;;;1.42;100.00
51452;BME280;37521;52.020;-1.740;2023-03-04T03:45:12;101357.13;;;1.40;100.00
51452;BME280;37521;52.020;-1.740;2023-03-04T03:47:40;101360.59;;;1.39;100.00
51452;BME280;37521;52.020;-1.740;2023-03-04T03:50:09;101365.78;;;1.39;100.00
51452;BME280;37521;52.020;-1.740;2023-03-04T03:52:38;101360.59;;;1.40;100.00
51452;BME280;37521;52.020;-1.740;2023-03-04T03:55:07;101360.59;;;1.39;100.00
51452;BME280;37521;52.020;-1.740;2023-03-04T03:57:35;101357.09;;;1.36;100.00
51452;BME280;37521;52.020;-1.740;2023-03-04T04:00:05;101357.97;;;1.37;100.00
51452;BME280;37521;52.020;-1.740;2023-03-04T04:02:37;101363.19;;;1.39;100.00
51452;BME280;37521;52.020;-1.740;2023-03-04T04:05:07;101364.91;;;1.38;100.00
51452;BME280;37521;52.020;-1.740;2023-03-04T04:07:36;101358.91;;;1.41;100.00
51452;BME280;37521;52.020;-1.740;2023-03-04T04:10:06;101356.25;;;1.39;100.00
51452;BME280;37521;52.020;-1.740;2023-03-04T04:12:34;101361.44;;;1.36;100.00
51452;BME280;37521;52.020;-1.740;2023-03-04T04:15:03;101366.56;;;1.30;100.00
51452;BME280;37521;52.020;-1.740;2023-03-04T04:17:31;101369.09;;;1.27;100.00
51452;BME280;37521;52.020;-1.740;2023-03-04T04:19:59;101371.69;;;1.27;100.00
51452;BME280;37521;52.020;-1.740;2023-03-04T04:22:27;101373.41;;;1.25;100.00
51452;BME280;37521;52.020;-1.740;2023-03-04T04:24:55;101363.91;;;1.27;100.00
51452;BME280;37521;52.020;-1.740;2023-03-04T04:27:25;101371.75;;;1.30;100.00
51452;BME280;37521;52.020;-1.740;2023-03-04T04:29:53;101376.97;;;1.30;100.00
51452;BME280;37521;52.020;-1.740;2023-03-04T04:32:21;101382.19;;;1.33;100.00
51452;BME280;37521;52.020;-1.740;2023-03-04T04:34:50;101382.16;;;1.30;100.00
51452;BME280;37521;52.020;-1.740;2023-03-04T04:37:18;101381.28;;;1.28;100.00
51452;BME280;37521;52.020;-1.740;2023-03-04T04:39:46;101378.69;;;1.28;100.00
51452;BME280;37521;52.020;-1.740;2023-03-04T04:42:14;101380.38;;;1.26;100.00
51452;BME280;37521;52.020;-1.740;2023-03-04T04:44:43;101386.41;;;1.25;100.00
51452;BME280;37521;52.020;-1.740;2023-03-04T04:47:11;101383.81;;;1.25;100.00
51452;BME280;37521;52.020;-1.740;2023-03-04T04:49:40;101385.56;;;1.26;100.00
51452;BME280;37521;52.020;-1.740;2023-03-04T04:52:08;101387.31;;;1.27;100.00
51452;BME280;37521;52.020;-1.740;2023-03-04T04:54:36;101385.53;;;1.23;100.00
51452;BME280;37521;52.020;-1.740;2023-03-04T04:57:04;101391.56;;;1.20;100.00
51452;BME280;37521;52.020;-1.740;2023-03-04T04:59:32;101383.72;;;1.19;100.00
51452;BME280;37521;52.020;-1.740;2023-03-04T05:02:02;101386.34;;;1.19;100.00
51452;BME280;37521;52.020;-1.740;2023-03-04T05:04:30;101388.91;;;1.16;100.00
51452;BME280;37521;52.020;-1.740;2023-03-04T05:06:58;101395.84;;;1.15;100.00
51452;BME280;37521;52.020;-1.740;2023-03-04T05:09:26;101388.06;;;1.17;100.00
51452;BME280;37521;52.020;-1.740;2023-03-04T05:11:54;101394.13;;;1.17;100.00
51452;BME280;37521;52.020;-1.740;2023-03-04T05:14:22;101393.28;;;1.20;100.00
51452;BME280;37521;52.020;-1.740;2023-03-04T05:16:51;101393.31;;;1.21;100.00
51452;BME280;37521;52.020;-1.740;2023-03-04T05:19:21;101395.94;;;1.21;100.00
51452;BME280;37521;52.020;-1.740;2023-03-04T05:21:49;101390.69;;;1.20;100.00
51452;BME280;37521;52.020;-1.740;2023-03-04T05:24:17;101391.53;;;1.19;100.00
51452;BME280;37521;52.020;-1.740;2023-03-04T05:26:46;101399.34;;;1.19;100.00
51452;BME280;37521;52.020;-1.740;2023-03-04T05:29:14;101390.66;;;1.18;100.00
51452;BME280;37521;52.020;-1.740;2023-03-04T05:31:43;101393.25;;;1.17;100.00
51452;BME280;37521;52.020;-1.740;2023-03-04T05:34:11;101390.66;;;1.17;100.00
51452;BME280;37521;52.020;-1.740;2023-03-04T05:36:40;101388.94;;;1.19;100.00
51452;BME280;37521;52.020;-1.740;2023-03-04T05:39:10;101399.41;;;1.22;100.00
51452;BME280;37521;52.020;-1.740;2023-03-04T05:41:38;101391.59;;;1.22;100.00
51452;BME280;37521;52.020;-1.740;2023-03-04T05:44:06;101395.06;;;1.21;100.00
51452;BME280;37521;52.020;-1.740;2023-03-04T05:46:34;101398.47;;;1.17;100.00
51452;BME280;37521;52.020;-1.740;2023-03-04T05:49:02;101392.38;;;1.16;100.00
51452;BME280;37521;52.020;-1.740;2023-03-04T05:51:30;101392.41;;;1.18;100.00
51452;BME280;37521;52.020;-1.740;2023-03-04T05:54:00;101395.88;;;1.18;100.00
51452;BME280;37521;52.020;-1.740;2023-03-04T05:56:28;101395.84;;;1.17;100.00
51452;BME280;37521;52.020;-1.740;2023-03-04T05:58:57;101390.66;;;1.17;100.00
51452;BME280;37521;52.020;-1.740;2023-03-04T06:01:25;101394.13;;;1.16;100.00
51452;BME280;37521;52.020;-1.740;2023-03-04T06:03:53;101395.78;;;1.14;100.00
51452;BME280;37521;52.020;-1.740;2023-03-04T06:06:22;101392.38;;;1.15;100.00
51452;BME280;37521;52.020;-1.740;2023-03-04T06:08:50;101394.91;;;1.13;100.00
51452;BME280;37521;52.020;-1.740;2023-03-04T06:11:20;101402.72;;;1.12;100.00
51452;BME280;37521;52.020;-1.740;2023-03-04T06:13:48;101389.72;;;1.13;100.00
51452;BME280;37521;52.020;-1.740;2023-03-04T06:16:16;101392.38;;;1.15;100.00
51452;BME280;37521;52.020;-1.740;2023-03-04T06:18:44;101401.06;;;1.17;100.00
51452;BME280;37521;52.020;-1.740;2023-03-04T06:21:12;101401.06;;;1.17;100.00
51452;BME280;37521;52.020;-1.740;2023-03-04T06:23:41;101399.31;;;1.16;100.00
51452;BME280;37521;52.020;-1.740;2023-03-04T06:26:10;101401.00;;;1.14;100.00
51452;BME280;37521;52.020;-1.740;2023-03-04T06:28:43;101408.88;;;1.17;100.00
51452;BME280;37521;52.020;-1.740;2023-03-04T06:31:11;101405.38;;;1.16;100.00
51452;BME280;37521;52.020;-1.740;2023-03-04T06:33:40;101400.19;;;1.16;100.00
51452;BME280;37521;52.020;-1.740;2023-03-04T06:36:08;101409.72;;;1.16;100.00
51452;BME280;37521;52.020;-1.740;2023-03-04T06:38:36;101409.72;;;1.16;100.00
51452;BME280;37521;52.020;-1.740;2023-03-04T06:41:05;101413.97;;;1.09;100.00
51452;BME280;37521;52.020;-1.740;2023-03-04T06:43:33;101421.78;;;1.11;100.00
51452;BME280;37521;52.020;-1.740;2023-03-04T06:46:03;101419.19;;;1.11;100.00
51452;BME280;37521;52.020;-1.740;2023-03-04T06:48:32;101423.53;;;1.12;100.00
51452;BME280;37521;52.020;-1.740;2023-03-04T06:51:04;101423.50;;;1.08;100.00
51452;BME280;37521;52.020;-1.740;2023-03-04T06:53:32;101421.69;;;1.06;100.00
51452;BME280;37521;52.020;-1.740;2023-03-04T06:56:01;101428.63;;;1.05;100.00
51452;BME280;37521;52.020;-1.740;2023-03-04T06:58:29;101420.81;;;1.05;100.00
51452;BME280;37521;52.020;-1.740;2023-03-04T07:01:07;101423.44;;;1.05;100.00
51452;BME280;37521;52.020;-1.740;2023-03-04T07:03:37;101425.16;;;1.06;100.00
51452;BME280;37521;52.020;-1.740;2023-03-04T07:06:05;101420.03;;;1.09;100.00
51452;BME280;37521;52.020;-1.740;2023-03-04T07:08:33;101422.72;;;1.14;100.00
51452;BME280;37521;52.020;-1.740;2023-03-04T07:11:02;101427.94;;;1.17;100.00
51452;BME280;37521;52.020;-1.740;2023-03-04T07:13:30;101425.34;;;1.19;100.00
51452;BME280;37521;52.020;-1.740;2023-03-04T07:16:00;101420.16;;;1.19;100.00
51452;BME280;37521;52.020;-1.740;2023-03-04T07:18:28;101431.44;;;1.19;100.00
51452;BME280;37521;52.020;-1.740;2023-03-04T07:20:58;101432.31;;;1.20;100.00
51452;BME280;37521;52.020;-1.740;2023-03-04T07:23:26;101434.03;;;1.18;100.00
51452;BME280;37521;52.020;-1.740;2023-03-04T07:25:54;101438.31;;;1.14;100.00
51452;BME280;37521;52.020;-1.740;2023-03-04T07:28:25;101438.31;;;1.14;100.00
51452;BME280;37521;52.020;-1.740;2023-03-04T07:30:54;101440.94;;;1.16;100.00
51452;BME280;37521;52.020;-1.740;2023-03-04T07:33:22;101437.47;;;1.17;100.00
51452;BME280;37521;52.020;-1.740;2023-03-04T07:35:58;101435.75;;;1.19;100.00
51452;BME280;37521;52.020;-1.740;2023-03-04T07:38:26;101446.16;;;1.19;100.00
51452;BME280;37521;52.020;-1.740;2023-03-04T07:40:55;101434.09;;;1.21;100.00
51452;BME280;37521;52.020;-1.740;2023-03-04T07:43:24;101435.78;;;1.20;100.00
51452;BME280;37521;52.020;-1.740;2023-03-04T07:45:57;101434.09;;;1.21;100.00
51452;BME280;37521;52.020;-1.740;2023-03-04T07:48:26;101429.75;;;1.21;100.00
51452;BME280;37521;52.020;-1.740;2023-03-04T07:51:15;101434.97;;;1.24;100.00
51452;BME280;37521;52.020;-1.740;2023-03-04T07:53:45;101431.53;;;1.25;100.00
51452;BME280;37521;52.020;-1.740;2023-03-04T07:56:14;101441.13;;;1.28;100.00
51452;BME280;37521;52.020;-1.740;2023-03-04T07:58:43;101433.31;;;1.28;100.00
51452;BME280;37521;52.020;-1.740;2023-03-04T08:01:13;101434.19;;;1.30;100.00
51452;BME280;37521;52.020;-1.740;2023-03-04T08:03:42;101446.34;;;1.31;100.00
51452;BME280;37521;52.020;-1.740;2023-03-04T08:06:12;101448.97;;;1.31;100.00
51452;BME280;37521;52.020;-1.740;2023-03-04T08:08:42;101448.00;;;1.26;100.00
51452;BME280;37521;52.020;-1.740;2023-03-04T08:11:12;101441.06;;;1.25;100.00
51452;BME280;37521;52.020;-1.740;2023-03-04T08:13:42;101452.41;;;1.28;100.00
51452;BME280;37521;52.020;-1.740;2023-03-04T08:16:11;101448.06;;;1.29;100.00
51452;BME280;37521;52.020;-1.740;2023-03-04T08:18:42;101449.81;;;1.30;100.00
51452;BME280;37521;52.020;-1.740;2023-03-04T08:21:11;101448.97;;;1.32;100.00
51452;BME280;37521;52.020;-1.740;2023-03-04T08:23:39;101451.63;;;1.34;100.00
51452;BME280;37521;52.020;-1.740;2023-03-04T08:26:12;101453.38;;;1.35;100.00
51452;BME280;37521;52.020;-1.740;2023-03-04T08:28:41;101449.03;;;1.37;100.00
51452;BME280;37521;52.020;-1.740;2023-03-04T08:31:11;101455.13;;;1.39;100.00
51452;BME280;37521;52.020;-1.740;2023-03-04T08:33:39;101461.19;;;1.38;100.00
51452;BME280;37521;52.020;-1.740;2023-03-04T08:36:08;101461.19;;;1.38;100.00
51452;BME280;37521;52.020;-1.740;2023-03-04T08:38:37;101458.59;;;1.38;100.00
51452;BME280;37521;52.020;-1.740;2023-03-04T08:41:05;101467.25;;;1.37;100.00
51452;BME280;37521;52.020;-1.740;2023-03-04T08:43:35;101467.25;;;1.35;100.00
51452;BME280;37521;52.020;-1.740;2023-03-04T08:46:03;101464.66;;;1.35;100.00
51452;BME280;37521;52.020;-1.740;2023-03-04T08:48:32;101472.44;;;1.34;100.00
51452;BME280;37521;52.020;-1.740;2023-03-04T08:51:01;101469.78;;;1.32;100.00
51452;BME280;37521;52.020;-1.740;2023-03-04T08:53:33;101466.34;;;1.33;100.00
51452;BME280;37521;52.020;-1.740;2023-03-04T08:56:02;101474.13;;;1.32;100.00
51452;BME280;37521;52.020;-1.740;2023-03-04T08:58:30;101465.47;;;1.33;100.00
51452;BME280;37521;52.020;-1.740;2023-03-04T09:01:00;101468.13;;;1.36;100.00
51452;BME280;37521;52.020;-1.740;2023-03-04T09:03:29;101459.47;;;1.37;100.00
51452;BME280;37521;52.020;-1.740;2023-03-04T09:05:57;101457.72;;;1.36;100.00
51452;BME280;37521;52.020;-1.740;2023-03-04T09:08:26;101462.09;;;1.40;100.00
51452;BME280;37521;52.020;-1.740;2023-03-04T09:10:54;101450.88;;;1.43;100.00
51452;BME280;37521;52.020;-1.740;2023-03-04T09:13:23;101470.84;;;1.44;100.00
51452;BME280;37521;52.020;-1.740;2023-03-04T09:15:52;101465.63;;;1.42;100.00
51452;BME280;37521;52.020;-1.740;2023-03-04T09:18:23;101470.03;;;1.49;100.00
51452;BME280;37521;52.020;-1.740;2023-03-04T09:20:51;101468.31;;;1.48;100.00
51452;BME280;37521;52.020;-1.740;2023-03-04T09:23:20;101470.03;;;1.48;100.00
51452;BME280;37521;52.020;-1.740;2023-03-04T09:25:49;101460.44;;;1.45;100.00
51452;BME280;37521;52.020;-1.740;2023-03-04T09:28:18;101467.28;;;1.40;100.00
51452;BME280;37521;52.020;-1.740;2023-03-04T09:30:46;101472.50;;;1.40;100.00
51452;BME280;37521;52.020;-1.740;2023-03-04T09:33:14;101467.38;;;1.46;100.00
51452;BME280;37521;52.020;-1.740;2023-03-04T09:35:44;101461.38;;;1.50;100.00
51452;BME280;37521;52.020;-1.740;2023-03-04T09:38:14;101459.66;;;1.52;100.00
51452;BME280;37521;52.020;-1.740;2023-03-04T09:40:45;101463.19;;;1.56;100.00
51452;BME280;37521;52.020;-1.740;2023-03-04T09:43:19;101462.25;;;1.52;100.00
51452;BME280;37521;52.020;-1.740;2023-03-04T09:45:52;101444.91;;;1.53;100.00
51452;BME280;37521;52.020;-1.740;2023-03-04T09:48:24;101457.91;;;1.51;100.00
51452;BME280;37521;52.020;-1.740;2023-03-04T09:51:14;101466.59;;;1.50;100.00
51452;BME280;37521;52.020;-1.740;2023-03-04T09:53:53;101461.41;;;1.52;100.00
51452;BME280;37521;52.020;-1.740;2023-03-04T09:56:24;101453.59;;;1.53;100.00
51452;BME280;37521;52.020;-1.740;2023-03-04T09:58:59;101461.47;;;1.56;100.00
51452;BME280;37521;52.020;-1.740;2023-03-04T10:01:33;101457.13;;;1.55;100.00
51452;BME280;37521;52.020;-1.740;2023-03-04T10:04:11;101453.66;;;1.56;100.00
51452;BME280;37521;52.020;-1.740;2023-03-04T10:06:43;101459.75;;;1.60;100.00
51452;BME280;37521;52.020;-1.740;2023-03-04T10:09:23;101452.81;;;1.59;100.00
51452;BME280;37521;52.020;-1.740;2023-03-04T10:11:59;101454.53;;;1.58;100.00
51452;BME280;37521;52.020;-1.740;2023-03-04T10:14:33;101463.25;;;1.60;100.00
51452;BME280;37521;52.020;-1.740;2023-03-04T10:17:08;101465.00;;;1.61;100.00
51452;BME280;37521;52.020;-1.740;2023-03-04T10:19:50;101464.09;;;1.59;100.00
51452;BME280;37521;52.020;-1.740;2023-03-04T10:22:28;101466.69;;;1.59;100.00
51452;BME280;37521;52.020;-1.740;2023-03-04T10:25:09;101464.91;;;1.54;100.00
51452;BME280;37521;52.020;-1.740;2023-03-04T10:27:42;101458.81;;;1.53;100.00
51452;BME280;37521;52.020;-1.740;2023-03-04T10:30:19;101455.38;;;1.54;100.00
51452;BME280;37521;52.020;-1.740;2023-03-04T10:32:50;101467.56;;;1.58;100.00
51452;BME280;37521;52.020;-1.740;2023-03-04T10:35:19;101464.09;;;1.58;100.00
51452;BME280;37521;52.020;-1.740;2023-03-04T10:37:51;101454.53;;;1.58;100.00
51452;BME280;37521;52.020;-1.740;2023-03-04T10:40:23;101457.16;;;1.58;100.00
51452;BME280;37521;52.020;-1.740;2023-03-04T10:42:52;101458.91;;;1.59;100.00
51452;BME280;37521;52.020;-1.740;2023-03-04T10:45:23;101447.69;;;1.63;100.00
51452;BME280;37521;52.020;-1.740;2023-03-04T10:47:52;101459.91;;;1.69;100.00
51452;BME280;37521;52.020;-1.740;2023-03-04T10:50:22;101459.91;;;1.71;100.00
51452;BME280;37521;52.020;-1.740;2023-03-04T10:52:53;101455.50;;;1.67;100.00
51452;BME280;37521;52.020;-1.740;2023-03-04T10:55:23;101456.38;;;1.67;100.00
51452;BME280;37521;52.020;-1.740;2023-03-04T10:57:54;101465.13;;;1.69;100.00
51452;BME280;37521;52.020;-1.740;2023-03-04T11:00:27;101463.38;;;1.70;100.00
51452;BME280;37521;52.020;-1.740;2023-03-04T11:03:21;101462.50;;;1.68;100.00
51452;BME280;37521;52.020;-1.740;2023-03-04T11:06:07;101456.44;;;1.70;100.00
51452;BME280;37521;52.020;-1.740;2023-03-04T11:08:39;101453.91;;;1.75;100.00
51452;BME280;37521;52.020;-1.740;2023-03-04T11:11:21;101446.13;;;1.79;100.00
51452;BME280;37521;52.020;-1.740;2023-03-04T11:13:51;101445.34;;;1.85;100.00
51452;BME280;37521;52.020;-1.740;2023-03-04T11:16:24;101438.38;;;1.81;100.00
51452;BME280;37521;52.020;-1.740;2023-03-04T11:18:54;101443.50;;;1.78;100.00
51452;BME280;37521;52.020;-1.740;2023-03-04T11:21:29;101441.78;;;1.77;100.00
51452;BME280;37521;52.020;-1.740;2023-03-04T11:24:02;101433.97;;;1.78;100.00
51452;BME280;37521;52.020;-1.740;2023-03-04T11:26:35;101428.00;;;1.87;100.00
51452;BME280;37521;52.020;-1.740;2023-03-04T11:29:13;101434.13;;;1.92;100.00
51452;BME280;37521;52.020;-1.740;2023-03-04T11:31:47;101426.38;;;1.97;100.00
51452;BME280;37521;52.020;-1.740;2023-03-04T11:34:26;101421.19;;;2.00;100.00
51452;BME280;37521;52.020;-1.740;2023-03-04T11:37:00;101421.19;;;1.98;100.00
51452;BME280;37521;52.020;-1.740;2023-03-04T11:39:36;101416.91;;;2.02;100.00
51452;BME280;37521;52.020;-1.740;2023-03-04T11:42:12;101419.59;;;2.09;100.00
51452;BME280;37521;52.020;-1.740;2023-03-04T11:44:44;101410.94;;;2.13;100.00
51452;BME280;37521;52.020;-1.740;2023-03-04T11:47:24;101415.25;;;2.13;100.00
51452;BME280;37521;52.020;-1.740;2023-03-04T11:50:14;101409.13;;;2.06;100.00
51452;BME280;37521;52.020;-1.740;2023-03-04T11:53:02;101406.56;;;2.08;100.00
51452;BME280;37521;52.020;-1.740;2023-03-04T11:55:40;101393.47;;;2.06;100.00
51452;BME280;37521;52.020;-1.740;2023-03-04T11:58:23;101391.72;;;2.02;100.00
51452;BME280;37521;52.020;-1.740;2023-03-04T12:01:07;101391.00;;;2.15;100.00
51452;BME280;37521;52.020;-1.740;2023-03-04T12:03:41;101385.00;;;2.26;100.00
51452;BME280;37521;52.020;-1.740;2023-03-04T12:06:19;101378.13;;;2.34;100.00
51452;BME280;37521;52.020;-1.740;2023-03-04T12:09:02;101382.44;;;2.32;100.00
51452;BME280;37521;52.020;-1.740;2023-03-04T12:11:42;101380.69;;;2.28;100.00
51452;BME280;37521;52.020;-1.740;2023-03-04T12:14:24;101379.78;;;2.26;100.00
51452;BME280;37521;52.020;-1.740;2023-03-04T12:17:14;101376.25;;;2.21;100.00
51452;BME280;37521;52.020;-1.740;2023-03-04T12:19:58;101374.56;;;2.26;100.00
51452;BME280;37521;52.020;-1.740;2023-03-04T12:22:37;101361.53;;;2.23;100.00
51452;BME280;37521;52.020;-1.740;2023-03-04T12:25:24;101371.19;;;2.34;100.00
51452;BME280;37521;52.020;-1.740;2023-03-04T12:28:08;101354.75;;;2.43;100.00
51452;BME280;37521;52.020;-1.740;2023-03-04T12:30:51;101353.91;;;2.44;100.00
51452;BME280;37521;52.020;-1.740;2023-03-04T12:33:31;101353.88;;;2.41;100.00
51452;BME280;37521;52.020;-1.740;2023-03-04T12:36:09;101346.88;;;2.37;100.00
51452;BME280;37521;52.020;-1.740;2023-03-04T12:38:52;101351.16;;;2.30;100.00
51452;BME280;37521;52.020;-1.740;2023-03-04T12:41:33;101342.38;;;2.19;100.00
51452;BME280;37521;52.020;-1.740;2023-03-04T12:44:12;101341.53;;;2.22;100.00
51452;BME280;37521;52.020;-1.740;2023-03-04T12:46:56;101337.22;;;2.27;100.00
51452;BME280;37521;52.020;-1.740;2023-03-04T12:49:45;101336.41;;;2.28;100.00
51452;BME280;37521;52.020;-1.740;2023-03-04T12:52:22;101338.91;;;2.20;100.00
51452;BME280;37521;52.020;-1.740;2023-03-04T12:54:55;101333.75;;;2.25;100.00
51452;BME280;37521;52.020;-1.740;2023-03-04T12:57:26;101332.06;;;2.33;100.00
51452;BME280;37521;52.020;-1.740;2023-03-04T13:00:07;101330.38;;;2.39;100.00